Time;durP1;ratioP1;P1;durP2;ratioP2;P2;SDS_P1;SDS_P2;PMS_P1;PMS_P2;Temp;Humidity;BMP_temperature;BMP_pressure;BME280_temperature;BME280_humidity;BME280_pressure;Samples;Min_cycle;Max_cycle;Signal;HPM_P1;HPM_P2
2021/12/20 00:01:57;;;;;;;3.75;3.00;;;;;;;-5.52;81.76;100497.84;4974513;28;20046;-64
2021/12/20 00:04:23;;;;;;;4.00;3.60;;;;;;;-5.73;81.04;100457.31;4974329;28;20038;-65
2021/12/20 00:06:48;;;;;;;3.17;2.87;;;;;;;-5.65;81.27;100494.13;4973840;28;20042;-65
2021/12/20 00:09:14;;;;;;;5.10;3.63;;;;;;;-5.78;81.43;100491.22;4974079;28;20035;-65
2021/12/20 00:11:39;;;;;;;3.17;2.87;;;;;;;-5.78;81.21;100486.03;4973827;28;20084;-65
2021/12/20 00:14:05;;;;;;;5.63;3.30;;;;;;;-5.79;80.81;100501.63;4974019;28;20035;-66
2021/12/20 00:16:31;;;;;;;2.60;2.40;;;;;;;-5.72;80.65;100508.28;4974169;28;20030;-67
2021/12/20 00:18:56;;;;;;;3.43;2.97;;;;;;;-5.76;81.53;100507.56;4973783;28;20109;-66
2021/12/20 00:21:22;;;;;;;3.83;3.07;;;;;;;-5.75;81.12;100500.63;4973986;28;20042;-66
2021/12/20 00:23:49;;;;;;;2.90;2.70;;;;;;;-6.07;80.56;100463.97;4973722;28;20035;-67
2021/12/20 00:26:14;;;;;;;3.63;3.13;;;;;;;-5.72;82.09;100547.19;4973627;28;20031;-65
2021/12/20 00:28:41;;;;;;;3.27;3.03;;;;;;;-5.88;82.66;100525.38;4973928;28;20046;-65
2021/12/20 00:31:09;;;;;;;3.55;3.25;;;;;;;-5.81;82.12;100534.56;4973406;28;20055;-65
2021/12/20 00:33:35;;;;;;;3.25;2.30;;;;;;;-5.93;82.09;100523.84;4973542;28;20054;-66
2021/12/20 00:36:02;;;;;;;4.07;2.30;;;;;;;-5.85;81.63;100559.81;4973784;28;20151;-66
2021/12/20 00:41:13;;;;;;;3.10;2.85;;;;;;;-6.02;80.04;100557.94;4973434;28;20074;-64
2021/12/20 00:43:39;;;;;;;3.17;2.88;;;;;;;-5.95;79.87;100572.34;4974077;28;20049;-63
2021/12/20 00:46:04;;;;;;;2.90;2.63;;;;;;;-6.08;79.85;100550.41;4973606;28;20034;-64
2021/12/20 00:48:30;;;;;;;4.13;2.60;;;;;;;-6.09;80.92;100548.72;4973521;28;20470;-65
2021/12/20 00:50:56;;;;;;;2.77;2.57;;;;;;;-6.16;79.38;100552.47;4973424;28;20043;-66
2021/12/20 00:53:22;;;;;;;2.90;2.60;;;;;;;-6.15;79.92;100559.34;4973028;28;20134;-65
2021/12/20 00:55:48;;;;;;;3.10;2.78;;;;;;;-6.10;79.37;100572.94;4973121;28;20035;-65
2021/12/20 00:58:14;;;;;;;2.75;2.55;;;;;;;-6.10;79.22;100585.91;4973521;28;20038;-65
2021/12/20 01:00:45;;;;;;;2.25;2.10;;;;;;;-6.09;79.11;100592.78;4973171;28;20038;-66
2021/12/20 01:03:12;;;;;;;2.40;2.20;;;;;;;-6.11;79.01;100585.97;4973608;28;20118;-64
2021/12/20 01:05:40;;;;;;;3.45;2.55;;;;;;;-6.18;79.65;100575.03;4973173;28;20035;-64
2021/12/20 01:08:08;;;;;;;2.92;2.33;;;;;;;-6.14;80.14;100605.09;4973151;28;20063;-67
2021/12/20 01:10:36;;;;;;;3.17;2.88;;;;;;;-6.30;79.22;100571.19;4973264;28;20484;-64
2021/12/20 01:13:03;;;;;;;2.83;2.00;;;;;;;-6.14;79.56;100602.50;4973137;28;20413;-66
2021/12/20 01:15:36;;;;;;;2.55;2.30;;;;;;;-6.12;80.28;100600.69;4973105;28;20446;-67
2021/12/20 01:18:03;;;;;;;2.60;2.40;;;;;;;-6.11;79.97;100593.75;4971982;28;20039;-66
2021/12/20 01:20:29;;;;;;;3.15;2.88;;;;;;;-6.07;79.64;100619.53;4973066;28;20030;-65
2021/12/20 01:22:55;;;;;;;2.17;2.07;;;;;;;-6.18;80.11;100605.28;4972886;28;20090;-66
2021/12/20 01:25:21;;;;;;;3.97;3.23;;;;;;;-6.16;80.28;100639.75;4973067;28;20035;-64
2021/12/20 01:27:48;;;;;;;3.05;2.20;;;;;;;-6.43;80.48;100615.75;4973161;28;20270;-66
2021/12/20 01:30:16;;;;;;;2.45;2.28;;;;;;;-6.25;80.52;100643.56;4973088;28;20047;-66
2021/12/20 01:32:43;;;;;;;2.17;2.00;;;;;;;-6.33;79.99;100637.84;4974968;28;20049;-67
2021/12/20 01:35:10;;;;;;;3.03;2.33;;;;;;;-6.28;79.26;100641.94;4959562;28;20051;-65
2021/12/20 01:37:36;;;;;;;2.78;2.58;;;;;;;-6.36;78.34;100648.28;4959303;28;20038;-66
2021/12/20 01:40:04;;;;;;;2.43;2.23;;;;;;;-6.43;79.23;100658.06;4976530;28;20030;-66
2021/12/20 01:42:32;;;;;;;3.13;2.28;;;;;;;-6.51;79.31;100654.06;4976943;28;20125;-66
2021/12/20 01:44:58;;;;;;;3.05;2.58;;;;;;;-6.60;79.48;100682.00;4982013;28;20049;-67
2021/12/20 01:47:31;;;;;;;4.27;2.50;;;;;;;-7.02;80.83;100647.28;4982044;28;20405;-65
2021/12/20 01:50:09;;;;;;;2.85;2.53;;;;;;;-6.82;81.85;100694.03;4979366;28;20049;-65
2021/12/20 01:52:42;;;;;;;4.25;2.63;;;;;;;-6.98;82.72;100654.88;4959334;28;20039;-66
2021/12/20 01:55:20;;;;;;;2.88;2.67;;;;;;;-6.87;82.51;100689.03;4976713;28;20043;-66
2021/12/20 01:57:48;;;;;;;5.50;2.85;;;;;;;-6.89;81.66;100688.25;4976606;28;20097;-66
2021/12/20 02:00:20;;;;;;;2.75;2.53;;;;;;;-6.97;81.57;100707.50;4976430;28;20109;-67
2021/12/20 02:02:45;;;;;;;3.22;3.03;;;;;;;-6.87;82.10;100750.31;4976505;28;20035;-66
2021/12/20 02:05:20;;;;;;;3.70;2.90;;;;;;;-6.97;81.89;100717.88;4981953;28;20046;-66
2021/12/20 02:10:15;;;;;;;9.75;2.88;;;;;;;-7.18;82.54;100699.59;4978953;28;20458;-67
2021/12/20 02:12:40;;;;;;;3.27;2.97;;;;;;;-7.09;82.67;100719.13;4976465;28;20030;-66
2021/12/20 02:15:07;;;;;;;3.10;2.90;;;;;;;-7.13;82.63;100714.97;4976480;28;20039;-65
2021/12/20 02:17:32;;;;;;;3.13;2.80;;;;;;;-7.10;82.88;100737.31;4959007;28;20031;-66
2021/12/20 02:20:00;;;;;;;2.83;2.63;;;;;;;-7.07;82.18;100737.22;4976401;28;20038;-66
2021/12/20 02:22:25;;;;;;;4.38;3.22;;;;;;;-7.28;81.79;100729.25;4976070;28;20086;-65
2021/12/20 02:24:51;;;;;;;7.53;2.73;;;;;;;-7.28;82.23;100744.78;4976124;28;20154;-66
2021/12/20 02:27:17;;;;;;;2.90;2.70;;;;;;;-7.47;83.23;100717.84;4975811;28;20534;-66
2021/12/20 02:29:58;;;;;;;3.00;2.70;;;;;;;-7.30;83.62;100754.34;4974370;28;20043;-67
2021/12/20 02:37:55;;;;;;;4.72;3.47;;;;;;;-7.50;83.39;100743.81;4975953;28;20043;-66
2021/12/20 02:40:22;;;;;;;3.37;3.07;;;;;;;-7.39;82.62;100758.97;4975879;28;20146;-67
2021/12/20 02:42:49;;;;;;;3.25;2.72;;;;;;;-7.60;82.23;100745.81;4975870;28;20258;-67
2021/12/20 02:45:16;;;;;;;4.63;2.70;;;;;;;-7.52;81.08;100761.97;4975038;28;20066;-65
2021/12/20 02:47:44;;;;;;;3.30;3.00;;;;;;;-7.51;80.82;100771.41;4958292;28;20039;-68
2021/12/20 02:50:11;;;;;;;2.63;2.47;;;;;;;-7.59;80.59;100775.97;4975732;28;20117;-66
2021/12/20 02:52:38;;;;;;;7.43;3.58;;;;;;;-7.58;81.64;100781.97;4975447;28;20085;-68
2021/12/20 02:55:05;;;;;;;3.38;2.90;;;;;;;-7.57;80.80;100778.50;4975821;28;20042;-66
2021/12/20 02:57:34;;;;;;;95.22;7.75;;;;;;;-7.68;81.35;100788.34;4975577;28;20038;-67
2021/12/20 02:59:59;;;;;;;2.70;2.50;;;;;;;-7.77;82.86;100778.28;4975600;28;20046;-68
2021/12/20 03:02:25;;;;;;;3.17;2.87;;;;;;;-7.75;81.42;100779.09;4975423;28;20266;-65
2021/12/20 03:04:51;;;;;;;4.70;2.93;;;;;;;-7.74;80.98;100778.19;4975308;28;20038;-66
2021/12/20 03:07:22;;;;;;;2.77;2.37;;;;;;;-7.88;79.66;100789.78;4957862;28;20054;-66
2021/12/20 03:09:53;;;;;;;4.53;3.33;;;;;;;-8.04;79.13;100785.97;4958089;28;20039;-67
2021/12/20 03:12:19;;;;;;;2.70;2.50;;;;;;;-7.92;77.86;100808.84;4975304;28;20070;-66
2021/12/20 03:14:48;;;;;;;2.50;2.30;;;;;;;-7.96;77.55;100802.09;4975235;28;20499;-65
2021/12/20 03:17:13;;;;;;;3.72;2.53;;;;;;;-8.23;79.88;100783.06;4975050;28;20031;-66
2021/12/20 03:19:39;;;;;;;2.97;2.70;;;;;;;-8.33;79.71;100791.16;4975259;28;20039;-67
2021/12/20 03:22:06;;;;;;;2.97;2.78;;;;;;;-8.21;80.96;100821.75;4974985;28;20030;-66
2021/12/20 03:24:32;;;;;;;2.85;2.65;;;;;;;-8.17;80.17;100831.13;4975094;28;20047;-70
2021/12/20 03:26:58;;;;;;;3.20;3.00;;;;;;;-8.31;80.11;100820.34;4975322;28;20410;-66
2021/12/20 03:29:24;;;;;;;2.77;2.57;;;;;;;-8.23;79.61;100820.97;4974867;28;20039;-66
2021/12/20 03:31:51;;;;;;;3.43;3.13;;;;;;;-8.76;77.21;100751.84;4973477;28;20054;-66
2021/12/20 03:34:19;;;;;;;3.35;3.10;;;;;;;-8.28;77.88;100841.75;4974692;28;20294;-65
2021/12/20 03:36:44;;;;;;;2.80;2.60;;;;;;;-8.27;77.13;100840.03;4974670;28;20129;-67
2021/12/20 03:39:11;;;;;;;4.28;3.33;;;;;;;-8.45;77.73;100829.31;4974696;28;20038;-66
2021/12/20 03:41:37;;;;;;;3.97;2.70;;;;;;;-8.39;77.29;100853.28;4974703;28;20050;-66
2021/12/20 03:44:04;;;;;;;3.25;2.60;;;;;;;-8.69;77.13;100829.97;4974406;28;20411;-66
2021/12/20 03:46:29;;;;;;;2.88;2.63;;;;;;;-8.56;76.95;100861.50;4974705;28;20042;-66
2021/12/20 03:48:55;;;;;;;2.87;2.73;;;;;;;-8.90;76.06;100815.06;4957231;28;20485;-66
2021/12/20 03:51:20;;;;;;;2.90;2.70;;;;;;;-8.78;75.88;100856.03;4974661;28;20093;-67
2021/12/20 03:53:46;;;;;;;6.13;3.00;;;;;;;-9.00;75.77;100821.31;4974205;28;20042;-67
2021/12/20 03:56:11;;;;;;;7.80;3.07;;;;;;;-8.85;75.77;100854.50;4974162;28;20151;-66
2021/12/20 03:58:37;;;;;;;3.13;2.93;;;;;;;-8.79;75.39;100856.91;4974745;28;20490;-68
2021/12/20 04:01:08;;;;;;;4.10;2.97;;;;;;;-8.84;74.85;100861.34;4974389;28;20733;-67
2021/12/20 04:03:35;;;;;;;3.03;2.83;;;;;;;-8.79;74.44;100875.81;4974109;28;20607;-66
2021/12/20 04:06:06;;;;;;;3.40;2.42;;;;;;;-9.11;75.36;100837.91;4974646;28;20035;-67
2021/12/20 04:08:32;;;;;;;3.25;2.70;;;;;;;-8.88;74.98;100878.66;4974711;28;20035;-66
2021/12/20 04:10:58;;;;;;;2.57;2.37;;;;;;;-8.94;74.35;100860.72;4974787;28;20034;-66
2021/12/20 04:13:25;;;;;;;4.15;2.88;;;;;;;-8.90;73.64;100897.63;4974991;28;20332;-67
2021/12/20 04:15:51;;;;;;;2.67;2.47;;;;;;;-8.93;74.36;100905.44;4974927;28;20034;-66
2021/12/20 04:18:17;;;;;;;2.70;2.50;;;;;;;-9.07;73.37;100885.97;4956567;28;20046;-66
2021/12/20 04:20:42;;;;;;;3.00;2.80;;;;;;;-9.09;72.64;100879.16;4974360;28;20269;-66
2021/12/20 04:23:08;;;;;;;3.17;2.97;;;;;;;-9.13;72.59;100880.97;4973965;28;20498;-67
2021/12/20 04:25:33;;;;;;;2.80;2.60;;;;;;;-9.13;72.70;100891.28;4940626;28;20495;-68
2021/12/20 04:27:59;;;;;;;3.13;2.83;;;;;;;-9.00;72.40;100903.88;4973884;28;20046;-67
2021/12/20 04:30:29;;;;;;;3.13;2.97;;;;;;;-8.99;71.27;100900.41;4974397;28;20061;-66
2021/12/20 04:32:55;;;;;;;3.17;2.90;;;;;;;-8.93;71.62;100913.19;4974985;28;20047;-65
2021/12/20 04:35:24;;;;;;;3.10;2.90;;;;;;;-8.98;72.19;100915.00;4975022;28;20046;-65
2021/12/20 04:37:51;;;;;;;3.67;3.38;;;;;;;-8.93;71.91;100928.69;4974409;28;20097;-69
2021/12/20 04:40:18;;;;;;;3.33;2.80;;;;;;;-8.90;72.18;100936.34;4973967;28;20050;-67
2021/12/20 04:42:45;;;;;;;3.47;2.72;;;;;;;-9.29;72.41;100869.28;4974196;28;20057;-66
2021/12/20 04:45:10;;;;;;;3.08;2.75;;;;;;;-9.02;72.28;100944.34;4978355;28;20048;-68
2021/12/20 04:47:36;;;;;;;3.70;3.40;;;;;;;-9.11;71.85;100938.53;4976028;28;20126;-67
2021/12/20 04:50:03;;;;;;;3.47;3.20;;;;;;;-9.00;72.88;100947.75;4976476;28;20564;-66
2021/12/20 04:52:29;;;;;;;2.83;2.63;;;;;;;-8.99;72.71;100944.28;4976166;28;20096;-68
2021/12/20 04:54:54;;;;;;;3.43;3.23;;;;;;;-9.23;73.92;100920.75;4973495;28;20031;-66
2021/12/20 04:57:20;;;;;;;5.50;3.10;;;;;;;-9.00;72.98;100942.59;4973391;28;20085;-68
2021/12/20 04:59:45;;;;;;;3.03;2.83;;;;;;;-8.94;72.24;100947.63;4973418;28;20053;-67
2021/12/20 05:02:11;;;;;;;2.40;2.10;;;;;;;-8.99;71.19;100952.03;4975323;28;20388;-65
2021/12/20 05:04:36;;;;;;;2.87;2.63;;;;;;;-9.13;74.09;100945.44;4974216;28;20039;-67
2021/12/20 05:07:03;;;;;;;2.63;2.43;;;;;;;-9.11;74.94;100948.00;4974687;28;20434;-66
2021/12/20 05:09:35;;;;;;;2.95;2.75;;;;;;;-9.18;74.59;100955.03;4974997;28;20173;-67
2021/12/20 05:12:10;;;;;;;3.05;2.85;;;;;;;-9.07;74.12;100978.84;4973759;28;20043;-66
2021/12/20 05:14:36;;;;;;;3.45;3.15;;;;;;;-9.09;73.21;100974.59;4973593;28;20035;-67
2021/12/20 05:17:02;;;;;;;3.10;2.80;;;;;;;-9.03;74.57;100999.41;4974858;28;20521;-65
2021/12/20 05:19:27;;;;;;;4.27;3.20;;;;;;;-9.34;73.53;100948.50;4956453;28;20046;-66
2021/12/20 05:21:53;;;;;;;2.97;2.67;;;;;;;-9.10;72.95;100989.25;4973239;28;20050;-66
2021/12/20 05:24:18;;;;;;;4.67;2.97;;;;;;;-9.16;73.04;100991.97;4973421;28;20042;-67
2021/12/20 05:26:44;;;;;;;5.23;3.10;;;;;;;-9.30;72.83;100975.91;4972864;28;20423;-67
2021/12/20 05:29:09;;;;;;;2.53;2.40;;;;;;;-9.22;72.23;100999.84;4972994;28;20045;-67
2021/12/20 05:31:35;;;;;;;2.87;2.70;;;;;;;-9.22;72.03;101006.72;4973289;28;20065;-66
2021/12/20 05:34:01;;;;;;;8.10;4.27;;;;;;;-9.26;70.28;100995.59;4973190;28;20537;-67
2021/12/20 05:36:26;;;;;;;3.43;3.13;;;;;;;-9.31;70.85;100991.41;4955724;28;20042;-69
2021/12/20 05:38:52;;;;;;;2.97;2.77;;;;;;;-9.30;70.08;101012.03;4973169;28;20042;-67
2021/12/20 05:41:17;;;;;;;4.23;4.00;;;;;;;-9.38;68.83;101021.66;4973021;28;20504;-66
2021/12/20 05:43:45;;;;;;;3.33;2.50;;;;;;;-9.45;68.72;101002.88;4972686;28;20101;-65
2021/12/20 05:46:11;;;;;;;10.88;3.33;;;;;;;-9.37;68.17;101038.81;4972986;28;20094;-65
2021/12/20 05:48:36;;;;;;;2.92;2.70;;;;;;;-9.38;67.01;101019.06;4973335;28;20070;-67
2021/12/20 05:51:02;;;;;;;3.13;2.93;;;;;;;-9.33;69.02;101048.19;4974154;28;20042;-66
2021/12/20 05:53:27;;;;;;;2.83;2.63;;;;;;;-9.42;67.55;101020.03;4958296;28;20127;-70
2021/12/20 05:55:53;;;;;;;2.90;2.70;;;;;;;-9.55;68.11;101009.06;4975218;28;20126;-68
2021/12/20 05:58:18;;;;;;;3.30;3.00;;;;;;;-9.59;68.20;101006.59;4956490;28;20082;-67
2021/12/20 06:00:44;;;;;;;3.57;3.03;;;;;;;-9.54;68.42;101033.13;4974331;28;20518;-66
2021/12/20 06:03:10;;;;;;;5.20;2.60;;;;;;;-9.59;66.91;101037.53;4976119;28;20037;-68
2021/12/20 06:05:38;;;;;;;3.33;3.00;;;;;;;-9.69;67.30;101035.13;4973994;28;20078;-65
2021/12/20 06:08:04;;;;;;;2.40;2.30;;;;;;;-9.47;66.24;101070.84;4955815;28;20061;-70
2021/12/20 06:10:29;;;;;;;3.40;3.10;;;;;;;-9.51;66.44;101064.03;4973585;28;20570;-65
2021/12/20 06:12:55;;;;;;;3.20;3.00;;;;;;;-9.46;66.92;101073.38;4974665;28;20072;-66
2021/12/20 06:15:21;;;;;;;3.92;3.58;;;;;;;-9.70;68.30;101046.31;4975689;28;20094;-69
2021/12/20 06:17:47;;;;;;;2.83;2.70;;;;;;;-9.57;68.27;101074.44;4972778;28;20082;-65
2021/12/20 06:20:13;;;;;;;3.93;3.63;;;;;;;-9.80;69.47;101068.00;4957413;28;20490;-65
2021/12/20 06:22:40;;;;;;;3.55;3.35;;;;;;;-9.80;69.87;101078.31;4975193;28;20446;-74
2021/12/20 06:25:06;;;;;;;3.67;2.95;;;;;;;-9.77;68.17;101083.41;4958703;28;20045;-63
2021/12/20 06:27:32;;;;;;;3.00;2.80;;;;;;;-9.88;67.21;101069.84;4976544;28;20096;-70
2021/12/20 06:29:58;;;;;;;3.70;3.50;;;;;;;-9.75;66.67;101091.97;4979598;28;20110;-75
2021/12/20 06:32:25;;;;;;;3.30;3.00;;;;;;;-9.61;66.98;101098.59;4979928;28;20546;-75
2021/12/20 06:34:51;;;;;;;2.47;2.38;;;;;;;-9.70;66.00;101108.19;4978606;28;20517;-66
2021/12/20 06:37:19;;;;;;;3.60;3.30;;;;;;;-9.82;65.76;101098.09;4976114;28;20474;-73
2021/12/20 06:39:44;;;;;;;3.33;3.13;;;;;;;-9.85;66.59;101082.66;4958533;28;20042;-72
2021/12/20 06:42:10;;;;;;;3.43;3.23;;;;;;;-9.74;65.75;101097.97;4975733;28;20070;-69
2021/12/20 06:44:36;;;;;;;3.40;3.17;;;;;;;-9.68;66.02;101114.16;4975973;28;20177;-66
2021/12/20 06:47:02;;;;;;;3.40;3.20;;;;;;;-9.67;65.84;101117.59;4975711;28;20126;-65
2021/12/20 06:49:27;;;;;;;3.35;3.05;;;;;;;-9.65;65.79;101120.13;4958113;28;20053;-69
2021/12/20 06:51:55;;;;;;;4.00;3.07;;;;;;;-9.66;66.39;101115.88;4957878;28;20031;-67
2021/12/20 06:54:21;;;;;;;2.88;2.70;;;;;;;-9.69;65.79;101125.34;4973979;28;20041;-67
2021/12/20 06:56:46;;;;;;;3.23;3.03;;;;;;;-9.69;65.17;101130.50;4975143;28;20046;-65
2021/12/20 06:59:12;;;;;;;3.80;3.50;;;;;;;-9.74;65.81;101126.31;4975346;28;20122;-62
2021/12/20 07:01:38;;;;;;;3.33;3.13;;;;;;;-9.66;65.39;101142.50;4975129;28;20038;-66
2021/12/20 07:04:04;;;;;;;3.30;3.10;;;;;;;-9.89;64.89;101132.56;4975499;28;20069;-64
2021/12/20 07:06:30;;;;;;;3.03;2.83;;;;;;;-9.89;64.94;101155.75;4974877;28;20034;-66
2021/12/20 07:08:56;;;;;;;5.87;3.23;;;;;;;-9.96;64.83;101149.00;4975028;28;20436;-65
2021/12/20 07:11:22;;;;;;;3.80;3.50;;;;;;;-9.85;65.25;101152.25;4957810;28;20129;-62
2021/12/20 07:13:48;;;;;;;3.83;3.53;;;;;;;-9.84;64.92;101153.09;4975223;28;20046;-68
2021/12/20 07:16:14;;;;;;;3.03;2.83;;;;;;;-9.70;64.08;101182.09;4974775;28;20043;-68
2021/12/20 07:18:40;;;;;;;3.10;2.90;;;;;;;-9.74;63.92;101168.41;4957814;28;20034;-68
2021/12/20 07:21:06;;;;;;;3.17;2.88;;;;;;;-9.77;63.60;101160.72;4957889;28;20041;-66
2021/12/20 07:23:32;;;;;;;3.97;3.63;;;;;;;-9.77;63.82;101165.03;4973548;28;20026;-67
2021/12/20 07:25:58;;;;;;;3.63;3.17;;;;;;;-9.84;63.08;101156.53;4975225;28;20038;-65
2021/12/20 07:28:23;;;;;;;3.43;3.23;;;;;;;-9.76;63.03;101197.66;4974907;28;20077;-66
2021/12/20 07:30:49;;;;;;;3.30;3.10;;;;;;;-9.86;63.49;101168.56;4974427;28;20120;-63
2021/12/20 07:33:18;;;;;;;3.43;3.23;;;;;;;-9.85;63.97;101179.75;4974985;28;20137;-66
2021/12/20 07:35:44;;;;;;;3.60;3.30;;;;;;;-9.88;64.01;101172.91;4956416;28;20043;-64
2021/12/20 07:38:13;;;;;;;3.40;3.20;;;;;;;-9.91;64.06;101180.69;4973391;28;20069;-65
2021/12/20 07:40:42;;;;;;;5.40;3.85;;;;;;;-9.88;64.10;101187.53;4974839;28;20046;-63
2021/12/20 07:43:08;;;;;;;4.05;3.65;;;;;;;-9.98;63.83;101181.66;4974626;28;20387;-64
2021/12/20 07:45:33;;;;;;;3.20;3.00;;;;;;;-10.04;63.59;101177.47;4957185;28;20085;-67
2021/12/20 07:47:59;;;;;;;3.97;3.67;;;;;;;-9.91;64.04;101191.00;4957167;28;20184;-63
2021/12/20 07:50:25;;;;;;;3.40;3.20;;;;;;;-9.94;64.02;101172.16;4974207;28;20058;-62
2021/12/20 07:52:50;;;;;;;3.40;3.20;;;;;;;-9.88;63.19;101214.13;4974299;28;20039;-63
2021/12/20 07:55:16;;;;;;;3.03;2.83;;;;;;;-9.97;63.91;101203.13;4974867;28;20053;-64
2021/12/20 07:57:42;;;;;;;3.50;3.25;;;;;;;-9.80;63.99;101211.47;4974419;28;20057;-63
2021/12/20 08:00:10;;;;;;;3.53;3.10;;;;;;;-9.81;63.75;101205.47;4973887;28;20030;-66
2021/12/20 08:02:36;;;;;;;4.00;3.70;;;;;;;-9.84;62.88;101190.03;4974636;28;20376;-73
2021/12/20 08:05:03;;;;;;;3.80;3.50;;;;;;;-9.78;63.44;101207.13;4957034;28;20055;-65
2021/12/20 08:07:28;;;;;;;4.55;4.00;;;;;;;-9.75;63.59;101214.81;4974250;28;20114;-66
2021/12/20 08:09:54;;;;;;;5.57;3.37;;;;;;;-9.77;62.98;101185.66;4974748;28;20074;-66
2021/12/20 08:12:20;;;;;;;3.43;3.23;;;;;;;-9.82;63.87;101188.31;4926247;28;20070;-73
2021/12/20 08:14:45;;;;;;;4.93;3.47;;;;;;;-9.75;63.71;101213.09;4974797;28;20043;-72
2021/12/20 08:17:11;;;;;;;3.87;3.57;;;;;;;-9.74;64.03;101209.63;4974678;28;20035;-64
2021/12/20 08:19:37;;;;;;;3.30;3.00;;;;;;;-9.67;64.39;101218.13;4973874;28;20541;-63
2021/12/20 08:22:03;;;;;;;3.10;2.90;;;;;;;-9.77;64.28;101189.06;4973615;28;20042;-68
2021/12/20 08:24:29;;;;;;;4.13;3.83;;;;;;;-9.58;64.39;101217.97;4974096;28;20034;-63
2021/12/20 08:26:54;;;;;;;3.70;3.37;;;;;;;-9.51;64.37;101211.00;4974174;28;20069;-65
2021/12/20 08:29:23;;;;;;;3.93;3.57;;;;;;;-9.47;63.89;101194.59;4974051;28;20494;-66
2021/12/20 08:31:49;;;;;;;4.28;2.85;;;;;;;-9.34;64.41;101221.88;4974639;28;20562;-72
2021/12/20 08:34:16;;;;;;;5.38;3.90;;;;;;;-9.32;64.53;101214.97;4975133;28;20038;-75
2021/12/20 08:36:41;;;;;;;4.30;4.00;;;;;;;-9.22;65.57;101229.41;4957345;28;20039;-72
2021/12/20 08:39:07;;;;;;;3.80;3.47;;;;;;;-9.27;66.62;101220.88;4974626;28;20053;-64
2021/12/20 08:41:32;;;;;;;3.70;2.93;;;;;;;-9.33;66.24;101228.72;4974189;28;20035;-73
2021/12/20 08:43:59;;;;;;;5.88;4.05;;;;;;;-9.46;67.03;101210.03;4973731;28;20087;-63
2021/12/20 08:46:25;;;;;;;4.53;3.50;;;;;;;-9.29;67.77;101216.63;4973781;28;20119;-63
2021/12/20 08:48:52;;;;;;;3.43;3.13;;;;;;;-9.27;67.40;101225.19;4973774;28;20031;-69
2021/12/20 08:51:17;;;;;;;4.80;4.40;;;;;;;-9.19;67.96;101223.34;4973751;28;20034;-65
2021/12/20 08:53:43;;;;;;;4.23;3.93;;;;;;;-9.26;68.37;101211.41;4974172;28;20401;-69
2021/12/20 08:56:09;;;;;;;4.60;3.47;;;;;;;-9.18;69.17;101219.91;4956690;28;20458;-67
2021/12/20 08:58:35;;;;;;;3.25;2.97;;;;;;;-9.04;67.35;101237.69;4973635;28;20566;-63
2021/12/20 09:01:01;;;;;;;4.73;3.90;;;;;;;-9.15;66.91;101233.59;4973913;28;20130;-70
2021/12/20 09:03:28;;;;;;;4.10;3.70;;;;;;;-9.20;66.36;101222.50;4973599;28;20073;-64
2021/12/20 09:05:54;;;;;;;5.18;3.25;;;;;;;-9.26;66.33;101216.56;4973950;28;20066;-68
2021/12/20 09:08:22;;;;;;;5.22;4.13;;;;;;;-9.18;66.57;101231.06;4973552;28;20050;-61
2021/12/20 09:10:49;;;;;;;7.55;4.57;;;;;;;-9.03;66.74;101239.41;4973346;28;20046;-63
2021/12/20 09:13:15;;;;;;;4.75;4.28;;;;;;;-9.27;67.11;101187.34;4973332;28;20045;-62
2021/12/20 09:15:41;;;;;;;5.30;4.40;;;;;;;-8.89;66.82;101229.69;4973122;28;20042;-62
2021/12/20 09:18:11;;;;;;;4.68;3.92;;;;;;;-8.82;65.67;101215.78;4973302;28;20038;-62
2021/12/20 09:20:37;;;;;;;4.90;3.75;;;;;;;-8.78;65.82;101232.91;4956382;28;20780;-65
2021/12/20 09:23:05;;;;;;;4.85;4.05;;;;;;;-8.84;67.86;101244.22;4956387;28;20039;-67
2021/12/20 09:25:37;;;;;;;3.40;3.20;;;;;;;-8.96;69.87;101252.19;4973489;28;20136;-59
2021/12/20 09:28:05;;;;;;;5.28;4.68;;;;;;;-9.33;72.02;101204.66;4973271;28;20039;-57
2021/12/20 09:30:31;;;;;;;8.95;4.50;;;;;;;-9.14;73.13;101227.56;4973195;28;20197;-57
2021/12/20 09:32:57;;;;;;;3.40;3.13;;;;;;;-8.94;72.70;101249.56;4972563;28;20534;-61
2021/12/20 09:35:23;;;;;;;5.57;4.50;;;;;;;-8.92;72.93;101250.41;4972597;28;20069;-65
2021/12/20 09:37:51;;;;;;;4.67;4.20;;;;;;;-9.00;73.70;101247.06;4972620;28;20034;-66
2021/12/20 09:40:37;;;;;;;4.00;3.67;;;;;;;-9.12;73.46;101238.69;4939982;28;20046;-66
2021/12/20 09:43:09;;;;;;;4.68;4.28;;;;;;;-9.07;74.16;101243.75;4972623;28;20039;-68
2021/12/20 09:45:36;;;;;;;4.60;3.92;;;;;;;-9.13;73.66;101242.16;4973168;28;20117;-68
2021/12/20 09:48:02;;;;;;;4.60;3.40;;;;;;;-9.04;73.27;101255.75;4955637;28;20561;-67
2021/12/20 09:50:28;;;;;;;5.53;3.60;;;;;;;-9.06;73.23;101243.72;4973589;28;20137;-68
2021/12/20 09:52:53;;;;;;;5.88;4.25;;;;;;;-8.96;72.71;101238.41;4973196;28;20042;-64
2021/12/20 09:55:19;;;;;;;6.37;3.30;;;;;;;-8.80;71.32;101237.25;4976721;28;20499;-65
2021/12/20 09:57:48;;;;;;;3.85;3.42;;;;;;;-8.62;71.36;101248.97;4979072;28;20034;-66
2021/12/20 10:00:17;;;;;;;4.28;3.88;;;;;;;-8.54;70.52;101247.09;4979957;28;20039;-69
2021/12/20 10:02:44;;;;;;;5.13;4.15;;;;;;;-8.42;69.85;101252.00;4978390;28;20117;-65
2021/12/20 10:05:15;;;;;;;6.07;3.97;;;;;;;-8.15;70.35;101247.94;4977458;28;20039;-69
2021/12/20 10:07:42;;;;;;;6.13;4.07;;;;;;;-8.09;69.47;101246.97;4976691;28;20074;-68
2021/12/20 10:10:09;;;;;;;6.80;4.47;;;;;;;-8.22;68.78;101234.31;4975728;28;20463;-75
2021/12/20 10:12:46;;;;;;;8.60;5.13;;;;;;;-8.27;69.83;101248.22;4976288;28;20490;-72
2021/12/20 10:15:14;;;;;;;7.40;4.60;;;;;;;-8.40;70.53;101213.22;4969598;28;20089;-68
2021/12/20 10:17:54;;;;;;;5.78;4.72;;;;;;;-8.08;71.31;101243.53;4977348;28;20035;-69
2021/12/20 10:20:26;;;;;;;10.35;4.45;;;;;;;-7.87;71.28;101240.44;4977219;28;20129;-62
2021/12/20 10:22:53;;;;;;;4.38;3.95;;;;;;;-7.81;68.77;101235.13;4980112;28;20035;-69
2021/12/20 10:25:30;;;;;;;5.25;4.38;;;;;;;-7.83;70.50;101247.25;4980544;28;20019;-69
2021/12/20 10:28:05;;;;;;;6.18;4.15;;;;;;;-7.85;71.05;101256.78;4980247;28;20522;-69
2021/12/20 10:30:39;;;;;;;5.78;3.72;;;;;;;-7.98;71.83;101237.25;4977228;28;20054;-61
2021/12/20 10:33:08;;;;;;;4.20;3.90;;;;;;;-7.92;72.64;101247.47;4975072;28;20049;-64
2021/12/20 10:35:37;;;;;;;9.70;4.80;;;;;;;-7.96;71.70;101240.66;4975984;28;20061;-69
2021/12/20 10:38:05;;;;;;;;;;;;;;;-7.87;72.38;101250.78;4976494;28;20072;-64
2021/12/20 10:40:32;;;;;;;4.82;3.78;;;;;;;-7.94;71.84;101233.72;4975999;28;19918;-68
2021/12/20 10:42:59;;;;;;;4.60;4.20;;;;;;;-7.81;71.71;101240.31;4958751;28;20131;-66
2021/12/20 10:45:26;;;;;;;7.25;5.35;;;;;;;-7.75;71.56;101240.19;4958423;28;20133;-66
2021/12/20 10:47:53;;;;;;;6.13;4.90;;;;;;;-7.90;71.49;101210.34;4975615;28;20410;-64
2021/12/20 10:50:40;;;;;;;8.57;5.30;;;;;;;-7.77;71.14;101233.34;4975886;28;20117;-62
2021/12/20 10:53:25;;;;;;;5.88;5.28;;;;;;;-7.78;70.76;101244.59;4975580;28;20088;-65
2021/12/20 10:55:54;;;;;;;6.32;4.85;;;;;;;-7.96;70.10;101246.69;4975351;28;20038;-62
2021/12/20 10:58:34;;;;;;;;;;;;;;;-8.06;69.62;101255.53;4976303;28;20506;-62
2021/12/20 11:01:44;;;;;;;4.45;4.05;;;;;;;-8.43;69.72;101243.38;4975189;28;19922;-69
2021/12/20 11:04:21;;;;;;;9.70;8.70;;;;;;;-8.70;69.66;101262.00;4955046;28;20126;-64
2021/12/20 11:09:31;;;;;;;6.15;4.05;;;;;;;-9.09;70.54;101248.94;4956092;29;20039;-63
2021/12/20 11:12:02;;;;;;;4.45;4.05;;;;;;;-9.16;70.28;101242.22;4955771;29;20035;-64
2021/12/20 11:14:30;;;;;;;3.90;3.60;;;;;;;-9.33;70.44;101256.25;4955786;29;20086;-63
2021/12/20 11:16:57;;;;;;;7.85;4.00;;;;;;;-9.42;71.18;101249.53;4955421;29;20582;-64
2021/12/20 11:19:39;;;;;;;4.72;4.30;;;;;;;-9.41;71.32;101235.75;4955804;29;20078;-63
2021/12/20 11:22:09;;;;;;;4.28;3.90;;;;;;;-9.40;70.87;101242.63;4955674;29;20035;-63
2021/12/20 11:24:56;;;;;;;5.53;4.82;;;;;;;-9.37;71.04;101242.56;4955685;29;20109;-61
2021/12/20 11:27:35;;;;;;;6.72;4.65;;;;;;;-9.27;70.33;101246.69;4938749;29;20143;-66
2021/12/20 11:30:06;;;;;;;8.18;5.55;;;;;;;-9.21;69.54;101259.50;4955657;28;20063;-63
2021/12/20 11:32:32;;;;;;;9.63;5.43;;;;;;;-9.34;69.46;101242.50;4955450;29;20059;-65
2021/12/20 11:34:58;;;;;;;4.57;4.03;;;;;;;-9.76;69.45;101202.81;4955302;29;20047;-64
2021/12/20 11:37:27;;;;;;;6.47;4.50;;;;;;;-9.42;69.39;101270.16;4955219;29;20043;-63
2021/12/20 11:39:54;;;;;;;10.63;6.45;;;;;;;-9.52;69.63;101255.72;4955693;29;20094;-63
2021/12/20 11:42:20;;;;;;;5.70;5.03;;;;;;;-9.55;70.01;101264.31;4955963;29;20069;-64